sensor_id;sensor_type;location;lat;lon;timestamp;P1;durP1;ratioP1;P2;durP2;ratioP2
76708;SDS011;65638;44.498;0.166;2022-12-18T00:12:04;75.23;;;33.03;;
76708;SDS011;65638;44.498;0.166;2022-12-18T00:25:54;56.13;;;30.53;;
76708;SDS011;65638;44.498;0.166;2022-12-18T00:39:44;76.13;;;37.77;;
76708;SDS011;65638;44.498;0.166;2022-12-18T00:47:50;31.00;;;11.83;;
76708;SDS011;65638;44.498;0.166;2022-12-18T00:53:35;64.37;;;34.80;;
76708;SDS011;65638;44.498;0.166;2022-12-18T01:07:24;77.63;;;40.60;;
76708;SDS011;65638;44.498;0.166;2022-12-18T01:21:15;73.53;;;35.33;;
76708;SDS011;65638;44.498;0.166;2022-12-18T01:35:05;81.70;;;38.40;;
76708;SDS011;65638;44.498;0.166;2022-12-18T01:48:56;79.80;;;39.07;;
76708;SDS011;65638;44.498;0.166;2022-12-18T02:02:45;83.43;;;34.50;;
76708;SDS011;65638;44.498;0.166;2022-12-18T02:16:38;69.07;;;31.93;;
76708;SDS011;65638;44.498;0.166;2022-12-18T02:30:27;77.70;;;34.40;;
76708;SDS011;65638;44.498;0.166;2022-12-18T02:44:21;71.23;;;32.43;;
76708;SDS011;65638;44.498;0.166;2022-12-18T02:58:09;68.17;;;29.37;;
76708;SDS011;65638;44.498;0.166;2022-12-18T03:00:58;23.87;;;9.73;;
76708;SDS011;65638;44.498;0.166;2022-12-18T03:12:07;77.20;;;32.10;;
76708;SDS011;65638;44.498;0.166;2022-12-18T03:25:46;66.37;;;27.13;;
76708;SDS011;65638;44.498;0.166;2022-12-18T03:39:37;72.77;;;30.70;;
76708;SDS011;65638;44.498;0.166;2022-12-18T04:07:17;66.93;;;27.80;;
76708;SDS011;65638;44.498;0.166;2022-12-18T04:21:07;66.53;;;27.70;;
76708;SDS011;65638;44.498;0.166;2022-12-18T04:34:58;54.07;;;20.97;;
76708;SDS011;65638;44.498;0.166;2022-12-18T04:48:49;59.83;;;24.20;;
76708;SDS011;65638;44.498;0.166;2022-12-18T05:02:40;59.67;;;23.53;;
76708;SDS011;65638;44.498;0.166;2022-12-18T05:14:13;27.23;;;7.57;;
76708;SDS011;65638;44.498;0.166;2022-12-18T05:16:28;65.70;;;21.40;;
76708;SDS011;65638;44.498;0.166;2022-12-18T05:30:19;44.47;;;16.50;;
76708;SDS011;65638;44.498;0.166;2022-12-18T05:44:08;36.33;;;16.07;;
76708;SDS011;65638;44.498;0.166;2022-12-18T05:57:58;39.43;;;19.40;;
76708;SDS011;65638;44.498;0.166;2022-12-18T06:11:48;33.90;;;17.13;;
76708;SDS011;65638;44.498;0.166;2022-12-18T06:25:39;28.13;;;15.30;;
76708;SDS011;65638;44.498;0.166;2022-12-18T06:39:29;27.93;;;14.57;;
76708;SDS011;65638;44.498;0.166;2022-12-18T06:53:19;25.90;;;14.07;;
76708;SDS011;65638;44.498;0.166;2022-12-18T07:07:08;26.70;;;14.17;;
76708;SDS011;65638;44.498;0.166;2022-12-18T07:21:02;26.27;;;14.40;;
76708;SDS011;65638;44.498;0.166;2022-12-18T07:27:31;15.50;;;6.20;;
76708;SDS011;65638;44.498;0.166;2022-12-18T07:34:49;29.33;;;14.30;;
76708;SDS011;65638;44.498;0.166;2022-12-18T07:48:39;22.10;;;13.03;;
76708;SDS011;65638;44.498;0.166;2022-12-18T08:02:30;20.87;;;12.40;;
76708;SDS011;65638;44.498;0.166;2022-12-18T08:16:19;19.07;;;12.03;;
76708;SDS011;65638;44.498;0.166;2022-12-18T08:44:07;15.63;;;10.03;;
76708;SDS011;65638;44.498;0.166;2022-12-18T08:57:50;14.10;;;8.40;;
76708;SDS011;65638;44.498;0.166;2022-12-18T09:11:41;12.53;;;8.03;;
76708;SDS011;65638;44.498;0.166;2022-12-18T09:25:33;12.87;;;7.30;;
76708;SDS011;65638;44.498;0.166;2022-12-18T09:39:20;9.87;;;7.07;;
76708;SDS011;65638;44.498;0.166;2022-12-18T09:41:35;-1.00;;;-1.00;;
76708;SDS011;65638;44.498;0.166;2022-12-18T09:53:15;8.10;;;5.50;;
76708;SDS011;65638;44.498;0.166;2022-12-18T10:07:02;12.37;;;6.37;;
76708;SDS011;65638;44.498;0.166;2022-12-18T10:20:54;6.27;;;4.97;;
76708;SDS011;65638;44.498;0.166;2022-12-18T10:48:33;4.03;;;3.73;;
76708;SDS011;65638;44.498;0.166;2022-12-18T11:02:26;8.07;;;4.33;;
76708;SDS011;65638;44.498;0.166;2022-12-18T11:16:18;5.70;;;4.87;;
76708;SDS011;65638;44.498;0.166;2022-12-18T11:30:08;8.50;;;4.40;;
76708;SDS011;65638;44.498;0.166;2022-12-18T11:43:55;4.13;;;3.30;;
76708;SDS011;65638;44.498;0.166;2022-12-18T11:55:53;6.33;;;3.80;;
76708;SDS011;65638;44.498;0.166;2022-12-18T11:57:48;4.23;;;3.80;;
76708;SDS011;65638;44.498;0.166;2022-12-18T12:11:41;3.53;;;3.13;;
76708;SDS011;65638;44.498;0.166;2022-12-18T12:25:29;3.57;;;3.33;;
76708;SDS011;65638;44.498;0.166;2022-12-18T12:39:16;10.67;;;3.87;;
76708;SDS011;65638;44.498;0.166;2022-12-18T12:53:05;4.07;;;3.73;;
76708;SDS011;65638;44.498;0.166;2022-12-18T13:06:56;8.63;;;3.40;;
76708;SDS011;65638;44.498;0.166;2022-12-18T13:20:43;4.37;;;3.57;;
76708;SDS011;65638;44.498;0.166;2022-12-18T13:34:32;14.03;;;4.53;;
76708;SDS011;65638;44.498;0.166;2022-12-18T13:48:25;4.67;;;3.73;;
76708;SDS011;65638;44.498;0.166;2022-12-18T14:02:15;6.23;;;2.87;;
76708;SDS011;65638;44.498;0.166;2022-12-18T14:08:16;5.10;;;3.30;;
76708;SDS011;65638;44.498;0.166;2022-12-18T14:16:04;4.63;;;3.27;;
76708;SDS011;65638;44.498;0.166;2022-12-18T14:29:55;3.27;;;2.67;;
76708;SDS011;65638;44.498;0.166;2022-12-18T14:43:46;3.30;;;2.30;;
76708;SDS011;65638;44.498;0.166;2022-12-18T14:57:36;5.30;;;3.13;;
76708;SDS011;65638;44.498;0.166;2022-12-18T15:25:21;7.80;;;3.10;;
76708;SDS011;65638;44.498;0.166;2022-12-18T15:39:05;6.67;;;4.07;;
76708;SDS011;65638;44.498;0.166;2022-12-18T15:52:55;3.67;;;3.27;;
76708;SDS011;65638;44.498;0.166;2022-12-18T16:06:45;7.20;;;3.33;;
76708;SDS011;65638;44.498;0.166;2022-12-18T16:20:48;6.53;;;3.30;;
76708;SDS011;65638;44.498;0.166;2022-12-18T16:34:29;7.23;;;3.13;;
76708;SDS011;65638;44.498;0.166;2022-12-18T16:48:17;6.83;;;3.67;;
76708;SDS011;65638;44.498;0.166;2022-12-18T17:02:14;3.50;;;3.30;;
76708;SDS011;65638;44.498;0.166;2022-12-18T17:29:50;11.63;;;6.17;;
76708;SDS011;65638;44.498;0.166;2022-12-18T17:43:49;11.10;;;5.97;;
76708;SDS011;65638;44.498;0.166;2022-12-18T17:57:31;4.67;;;3.97;;
76708;SDS011;65638;44.498;0.166;2022-12-18T18:11:27;14.90;;;6.43;;
76708;SDS011;65638;44.498;0.166;2022-12-18T18:25:09;13.53;;;6.20;;
76708;SDS011;65638;44.498;0.166;2022-12-18T18:33:53;8.33;;;3.80;;
76708;SDS011;65638;44.498;0.166;2022-12-18T18:39:00;7.10;;;5.40;;
76708;SDS011;65638;44.498;0.166;2022-12-18T18:52:48;12.40;;;9.27;;
76708;SDS011;65638;44.498;0.166;2022-12-18T19:06:39;14.00;;;6.23;;
76708;SDS011;65638;44.498;0.166;2022-12-18T19:20:28;10.97;;;6.80;;
76708;SDS011;65638;44.498;0.166;2022-12-18T19:34:18;9.67;;;6.13;;
76708;SDS011;65638;44.498;0.166;2022-12-18T19:48:08;6.20;;;5.13;;
76708;SDS011;65638;44.498;0.166;2022-12-18T20:01:58;15.33;;;8.77;;
76708;SDS011;65638;44.498;0.166;2022-12-18T20:15:49;11.30;;;5.57;;
76708;SDS011;65638;44.498;0.166;2022-12-18T20:29:43;8.63;;;4.60;;
76708;SDS011;65638;44.498;0.166;2022-12-18T20:43:31;9.03;;;6.47;;
76708;SDS011;65638;44.498;0.166;2022-12-18T20:46:59;8.13;;;3.73;;
76708;SDS011;65638;44.498;0.166;2022-12-18T20:57:22;9.27;;;5.17;;
76708;SDS011;65638;44.498;0.166;2022-12-18T21:11:24;22.33;;;8.50;;
76708;SDS011;65638;44.498;0.166;2022-12-18T21:25:03;12.93;;;5.17;;
76708;SDS011;65638;44.498;0.166;2022-12-18T21:38:54;-1.00;;;-1.00;;
76708;SDS011;65638;44.498;0.166;2022-12-18T21:52:43;16.77;;;8.47;;
76708;SDS011;65638;44.498;0.166;2022-12-18T22:06:35;24.87;;;8.03;;
76708;SDS011;65638;44.498;0.166;2022-12-18T22:20:24;30.00;;;8.33;;
76708;SDS011;65638;44.498;0.166;2022-12-18T22:34:15;15.93;;;5.53;;
76708;SDS011;65638;44.498;0.166;2022-12-18T22:48:03;12.57;;;6.47;;
76708;SDS011;65638;44.498;0.166;2022-12-18T23:00:12;10.47;;;4.93;;
76708;SDS011;65638;44.498;0.166;2022-12-18T23:15:42;11.43;;;5.70;;
76708;SDS011;65638;44.498;0.166;2022-12-18T23:29:32;19.33;;;7.33;;
76708;SDS011;65638;44.498;0.166;2022-12-18T23:57:13;16.60;;;3.83;;
